CheckWX is a tool to help pilots better visualize weather data.  It is not intended as a substitute for an official pre-flight weather briefing.

06:31:35 UTC

LFPV METAR
Villacoublay-Vélizy (BA 107) Air Base
Villacoublay/Vélizy, France
Current

32 mins ago

LFPV 120600Z AUTO 03011KT 360V060 CAVOK 14/09 Q1026 NOSIG
Observed
Jul-12 @ 06:00 UTC
Wind
  • 030° at 11 KTS
Visibility
10,000+ meters
Flight Rules
VFR
Cloud Levels
  • Clear skies
Temperature
14°C / 57°F
Dewpoint
C / 48°F
Humidity
72%
Altimeter
30.3" Hg
Pressure
1025.92 hPa
Previous

1 hour ago

LFPV 120530Z AUTO 03008KT CAVOK 14/09 Q1026 NOSIG
Observed
Jul-12 @ 05:30 UTC
Wind
  • 030° at 8 KTS
Visibility
10,000+ meters
Flight Rules
VFR
Cloud Levels
  • Clear skies
Temperature
14°C / 57°F
Dewpoint
C / 48°F
Humidity
72%
Altimeter
30.3" Hg
Pressure
1025.92 hPa
Previous

2 hours ago

LFPV 120500Z AUTO 03009KT 340V050 CAVOK 13/08 Q1026 NOSIG
Observed
Jul-12 @ 05:00 UTC
Wind
  • 030° at 9 KTS
Visibility
10,000+ meters
Flight Rules
VFR
Cloud Levels
  • Clear skies
Temperature
13°C / 55°F
Dewpoint
C / 46°F
Humidity
72%
Altimeter
30.3" Hg
Pressure
1025.92 hPa